Time;durP1;ratioP1;P1;durP2;ratioP2;P2;SDS_P1;SDS_P2;PMS_P1;PMS_P2;Temp;Humidity;BMP_temperature;BMP_pressure;BME280_temperature;BME280_humidity;BME280_pressure;Samples;Min_cycle;Max_cycle;Signal;HPM_P1;HPM_P2
2024/04/16 00:02:12;;;;;;;10.52;7.32;;;;;;;23.61;40.09;98112.69;5409266;26;19992;-76
2024/04/16 00:04:40;;;;;;;10.57;6.95;;;;;;;23.58;39.91;98108.63;5352120;26;20010;-77
2024/04/16 00:07:05;;;;;;;9.43;6.85;;;;;;;23.57;40.27;98109.66;5350877;26;20456;-76
2024/04/16 00:09:31;;;;;;;10.40;6.35;;;;;;;23.53;40.25;98096.97;5380964;26;20074;-77
2024/04/16 00:11:59;;;;;;;9.57;6.00;;;;;;;23.53;40.13;98096.97;5379199;26;19996;-76
2024/04/16 00:14:24;;;;;;;10.30;6.00;;;;;;;23.53;40.13;98097.81;5350918;26;20431;-77
2024/04/16 00:16:50;;;;;;;9.13;5.75;;;;;;;23.51;40.08;98091.88;5378532;26;19992;-77
2024/04/16 00:19:15;;;;;;;8.27;5.40;;;;;;;23.48;40.13;98089.63;5350872;26;20004;-78
2024/04/16 00:21:41;;;;;;;8.48;5.35;;;;;;;23.49;40.14;98085.94;5380863;26;19999;-76
2024/04/16 00:24:06;;;;;;;6.18;4.78;;;;;;;23.47;40.51;98088.84;5381688;26;19992;-78
2024/04/16 00:26:32;;;;;;;6.05;4.60;;;;;;;23.46;40.21;98094.38;5383673;26;19992;-77
2024/04/16 00:29:00;;;;;;;6.28;4.70;;;;;;;23.47;40.28;98086.16;5383169;26;20028;-77
2024/04/16 00:31:26;;;;;;;6.60;4.15;;;;;;;23.46;40.01;98073.06;5353962;26;20424;-78
2024/04/16 00:33:51;;;;;;;8.50;4.88;;;;;;;23.43;40.23;98068.97;5384023;26;19996;-77
2024/04/16 00:36:17;;;;;;;6.72;4.38;;;;;;;23.43;40.41;98068.97;5382099;26;20008;-77
2024/04/16 00:38:42;;;;;;;5.82;4.07;;;;;;;23.43;40.16;98068.16;5382121;26;19996;-77
2024/04/16 00:41:10;;;;;;;6.75;4.20;;;;;;;23.38;40.32;98060.81;5382985;26;20071;-78
2024/04/16 00:43:36;;;;;;;4.85;3.88;;;;;;;23.40;40.15;98068.59;5382542;26;20004;-77
2024/04/16 00:46:01;;;;;;;6.38;3.97;;;;;;;23.35;40.34;98060.44;5382594;26;19997;-77
2024/04/16 00:48:30;;;;;;;6.70;3.67;;;;;;;23.37;40.33;98063.72;5352968;26;20432;-78
2024/04/16 00:50:57;;;;;;;7.60;4.47;;;;;;;23.32;40.29;98056.38;5382550;26;20012;-77
2024/04/16 00:53:23;;;;;;;8.77;5.70;;;;;;;23.36;40.30;98062.09;5353705;26;19996;-77
2024/04/16 00:55:49;;;;;;;8.32;5.80;;;;;;;23.33;40.36;98052.69;5353744;26;20008;-76
2024/04/16 00:58:19;;;;;;;7.55;5.25;;;;;;;23.29;40.45;98046.97;5354140;26;20004;-78
2024/04/16 01:00:45;;;;;;;9.63;5.57;;;;;;;23.28;40.25;98047.19;5382216;26;20451;-78
2024/04/16 01:03:10;;;;;;;9.80;6.13;;;;;;;23.26;40.57;98047.41;5381257;26;19996;-78
2024/04/16 01:05:36;;;;;;;8.52;5.03;;;;;;;23.28;40.49;98044.53;5382192;26;20451;-77
2024/04/16 01:08:01;;;;;;;7.00;4.88;;;;;;;23.27;40.25;98043.69;5324805;26;19992;-77
2024/04/16 01:10:27;;;;;;;7.63;5.03;;;;;;;23.27;40.34;98049.03;5383978;26;19992;-79
2024/04/16 01:12:52;;;;;;;7.85;4.40;;;;;;;23.27;40.52;98053.53;5383789;26;20382;-77
2024/04/16 01:15:17;;;;;;;7.13;4.93;;;;;;;23.25;40.46;98058.28;5382219;26;20007;-77
2024/04/16 01:17:43;;;;;;;5.80;4.38;;;;;;;23.20;40.43;98045.59;5384041;26;19993;-78
2024/04/16 01:20:12;;;;;;;7.80;4.82;;;;;;;23.21;40.58;98043.75;5323656;26;19996;-78
2024/04/16 01:22:37;;;;;;;6.43;4.22;;;;;;;23.22;40.50;98046.19;5381800;26;20069;-77
2024/04/16 01:25:03;;;;;;;6.75;4.00;;;;;;;23.23;40.62;98050.50;5382353;26;20008;-77
2024/04/16 01:27:31;;;;;;;6.95;4.05;;;;;;;23.18;40.59;98041.50;5381391;26;19996;-78
2024/04/16 01:29:57;;;;;;;5.70;3.90;;;;;;;23.21;40.49;98044.56;5323956;26;19996;-77
2024/04/16 01:32:22;;;;;;;4.60;3.90;;;;;;;23.19;40.53;98043.97;5383755;26;20431;-78
2024/04/16 01:34:48;;;;;;;4.63;3.40;;;;;;;23.21;40.46;98046.41;5382614;26;19996;-76
2024/04/16 01:37:13;;;;;;;5.13;3.85;;;;;;;23.15;40.60;98042.78;5352161;26;20007;-77
2024/04/16 01:39:38;;;;;;;5.40;3.65;;;;;;;23.17;40.45;98043.38;5382395;26;20004;-77
2024/04/16 01:42:04;;;;;;;6.25;3.45;;;;;;;23.16;40.26;98041.72;5382593;26;20023;-78
2024/04/16 01:44:31;;;;;;;6.68;3.22;;;;;;;23.12;40.33;98041.34;5352840;26;20301;-77
2024/04/16 01:46:56;;;;;;;5.05;3.08;;;;;;;23.14;40.47;98046.47;5353201;26;20024;-76
2024/04/16 01:49:22;;;;;;;8.02;3.72;;;;;;;23.15;40.46;98047.28;5383597;26;20003;-76
2024/04/16 01:51:47;;;;;;;4.68;3.35;;;;;;;23.13;40.76;98039.50;5382540;26;19996;-76
2024/04/16 01:54:13;;;;;;;5.15;3.30;;;;;;;23.10;40.33;98031.94;5381295;26;19998;-76
2024/04/16 01:56:41;;;;;;;6.03;3.10;;;;;;;23.11;40.64;98039.72;5382151;26;19992;-77
2024/04/16 01:59:08;;;;;;;7.32;3.38;;;;;;;23.08;40.43;98040.13;5381854;26;20011;-76
2024/04/16 02:01:33;;;;;;;4.78;3.20;;;;;;;23.10;40.65;98047.91;5381345;26;20091;-76
2024/04/16 02:03:59;;;;;;;5.95;2.95;;;;;;;23.08;40.50;98042.81;5382959;26;19996;-77
2024/04/16 02:06:24;;;;;;;4.82;2.95;;;;;;;23.08;40.29;98031.34;5323852;26;19996;-76
2024/04/16 02:08:51;;;;;;;4.80;3.03;;;;;;;23.06;40.49;98028.88;5352793;26;20028;-77
2024/04/16 02:11:16;;;;;;;5.63;3.17;;;;;;;23.08;40.56;98018.03;5381966;26;20003;-77
2024/04/16 02:13:42;;;;;;;4.38;2.92;;;;;;;23.08;40.59;98023.38;5381681;26;19993;-77
2024/04/16 02:16:09;;;;;;;5.82;3.17;;;;;;;23.07;40.35;98017.19;5381122;26;19996;-77
2024/04/16 02:18:35;;;;;;;4.97;2.78;;;;;;;23.06;40.53;98020.09;5383737;26;20007;-77
2024/04/16 02:21:00;;;;;;;6.75;2.60;;;;;;;23.05;40.65;98021.09;5352220;26;20011;-77
2024/04/16 02:23:26;;;;;;;5.68;3.08;;;;;;;23.02;40.32;98013.53;5380366;26;20513;-77
2024/04/16 02:25:53;;;;;;;5.80;2.90;;;;;;;23.04;40.76;98024.78;5352472;26;20011;-77
2024/04/16 02:28:21;;;;;;;5.93;2.90;;;;;;;23.01;40.60;98025.22;5352457;26;20090;-77
2024/04/16 02:30:47;;;;;;;4.22;2.53;;;;;;;23.01;40.52;98027.88;5381360;26;20446;-78
2024/04/16 02:33:14;;;;;;;4.38;2.83;;;;;;;22.97;40.40;98024.03;5382405;26;19996;-76
2024/04/16 02:35:39;;;;;;;4.17;3.00;;;;;;;22.97;40.38;98024.03;5351360;26;19996;-78
2024/04/16 02:38:05;;;;;;;3.85;2.58;;;;;;;22.93;40.72;98011.16;5381539;26;20007;-77
2024/04/16 02:40:30;;;;;;;6.57;2.70;;;;;;;22.93;40.61;98015.66;5378757;26;20007;-78
2024/04/16 02:42:56;;;;;;;7.22;2.70;;;;;;;22.90;40.63;98010.75;5381723;26;20006;-76
2024/04/16 02:45:22;;;;;;;6.25;2.67;;;;;;;22.83;40.59;98002.81;5380361;26;20065;-77
2024/04/16 02:47:48;;;;;;;4.22;2.58;;;;;;;22.86;40.50;98006.88;5380298;26;20016;-77
2024/04/16 02:50:13;;;;;;;5.72;2.97;;;;;;;22.82;40.50;97998.53;5350855;26;20002;-76
2024/04/16 02:52:41;;;;;;;9.18;3.13;;;;;;;22.82;40.77;98003.84;5379043;26;20500;-77
2024/04/16 02:55:06;;;;;;;4.65;2.80;;;;;;;22.77;40.67;98001.00;5322259;26;19993;-77
2024/04/16 02:57:35;;;;;;;5.28;2.75;;;;;;;22.74;40.67;97988.94;5380293;26;20069;-77
2024/04/16 03:00:02;;;;;;;4.57;2.70;;;;;;;22.73;40.90;98005.94;5351747;26;19996;-77
2024/04/16 03:02:30;;;;;;;4.53;2.67;;;;;;;22.72;40.76;98009.63;5351866;26;20014;-78
2024/04/16 03:04:55;;;;;;;;;;;;;;;22.74;40.64;98020.06;5381460;26;19997;-76
2024/04/16 03:07:21;;;;;;;6.22;2.80;;;;;;;22.69;41.00;98022.53;5379016;26;19943;-76
2024/04/16 03:09:46;;;;;;;3.78;2.67;;;;;;;22.68;40.86;98019.06;5351161;26;19996;-77
2024/04/16 03:12:13;;;;;;;8.02;3.30;;;;;;;22.65;40.62;98006.19;5380373;26;20374;-77
2024/04/16 03:14:38;;;;;;;4.50;2.60;;;;;;;22.67;41.07;98017.41;5351083;26;19992;-78
2024/04/16 03:17:04;;;;;;;4.55;2.70;;;;;;;22.61;40.88;98012.94;5380278;26;20003;-77
2024/04/16 03:19:29;;;;;;;4.78;3.17;;;;;;;22.64;40.83;98033.00;5379642;26;20002;-77
2024/04/16 03:21:55;;;;;;;5.53;2.80;;;;;;;22.63;40.84;98045.50;5380603;26;20373;-77
2024/04/16 03:24:20;;;;;;;4.18;2.67;;;;;;;22.59;40.83;98028.31;5380551;26;20003;-77
2024/04/16 03:26:46;;;;;;;5.38;3.05;;;;;;;22.56;40.80;98034.84;5380120;26;19992;-77
2024/04/16 03:29:11;;;;;;;3.72;2.80;;;;;;;22.57;40.92;98047.13;5380374;26;19992;-77
2024/04/16 03:31:37;;;;;;;5.80;2.65;;;;;;;22.56;41.06;98047.34;5381853;26;19992;-77
2024/04/16 03:34:02;;;;;;;5.07;2.80;;;;;;;22.54;40.93;98042.25;5351325;26;20440;-76
2024/04/16 03:36:28;;;;;;;6.22;2.88;;;;;;;22.55;40.88;98046.53;5380334;26;20123;-76
2024/04/16 03:38:53;;;;;;;4.05;2.92;;;;;;;22.53;41.01;98039.78;5382471;26;19996;-78
2024/04/16 03:41:22;;;;;;;6.85;2.60;;;;;;;22.55;40.98;98046.53;5323481;26;20007;-77
2024/04/16 03:43:51;;;;;;;5.15;2.92;;;;;;;22.58;40.89;98045.28;5352100;26;19996;-77
2024/04/16 03:46:16;;;;;;;3.22;2.55;;;;;;;22.57;41.03;98044.47;5379814;26;20000;-78
2024/04/16 03:48:42;;;;;;;5.05;2.75;;;;;;;22.58;40.98;98048.78;5381926;26;20508;-77
2024/04/16 03:51:07;;;;;;;7.68;2.78;;;;;;;22.62;42.14;98054.50;5351081;26;20000;-78
2024/04/16 03:53:33;;;;;;;7.13;2.75;;;;;;;22.73;42.76;98056.47;5383247;26;20010;-78
2024/04/16 03:56:01;;;;;;;7.78;3.10;;;;;;;22.79;42.34;98062.81;5385575;26;20000;-78
2024/04/16 03:58:27;;;;;;;9.07;4.05;;;;;;;22.85;42.47;98061.13;5383777;26;20386;-76
2024/04/16 04:01:07;;;;;;;10.73;5.40;;;;;;;22.93;42.24;98063.56;5385225;26;20073;-78
2024/04/16 04:03:32;;;;;;;14.35;6.75;;;;;;;22.99;42.40;98060.03;5358098;26;20070;-78
2024/04/16 04:05:58;;;;;;;15.00;6.50;;;;;;;23.06;42.69;98060.81;5383383;26;20004;-82
2024/04/16 04:08:24;;;;;;;11.27;6.05;;;;;;;23.13;42.31;98079.44;5383800;26;19992;-78
2024/04/16 04:10:49;;;;;;;12.80;5.72;;;;;;;23.17;41.75;98077.19;5354227;26;20003;-79
2024/04/16 04:13:15;;;;;;;7.75;5.00;;;;;;;23.25;41.05;98076.91;5354445;26;20395;-77
2024/04/16 04:15:40;;;;;;;9.70;4.35;;;;;;;23.34;41.49;98085.44;5385476;26;19996;-77
2024/04/16 04:18:06;;;;;;;6.60;4.00;;;;;;;23.43;41.15;98079.63;5355135;26;20323;-85
2024/04/16 04:20:32;;;;;;;10.95;4.05;;;;;;;23.57;41.47;98087.53;5383592;26;20004;-79
2024/04/16 04:22:57;;;;;;;6.28;4.20;;;;;;;23.62;41.09;98072.53;5355887;26;20004;-82
2024/04/16 04:25:23;;;;;;;11.55;4.45;;;;;;;23.69;41.16;98082.31;5355235;26;19992;-81
2024/04/16 04:27:49;;;;;;;11.82;3.95;;;;;;;23.79;40.49;98083.44;5354571;26;20000;-80
2024/04/16 04:30:14;;;;;;;13.52;4.43;;;;;;;23.91;40.35;98088.09;5355524;26;19992;-82
2024/04/16 04:32:41;;;;;;;5.32;3.80;;;;;;;24.09;39.80;98088.13;5354502;26;20066;-80
2024/04/16 04:35:06;;;;;;;7.07;3.97;;;;;;;24.22;39.46;98083.72;5385909;26;20003;-81
2024/04/16 04:37:32;;;;;;;8.98;4.10;;;;;;;24.69;38.21;98089.38;5355058;26;20070;-81
2024/04/16 04:39:58;;;;;;;8.82;3.80;;;;;;;24.79;37.88;98089.63;5355033;26;20004;-81
2024/04/16 04:42:25;;;;;;;14.48;4.18;;;;;;;24.71;38.32;98090.75;5354456;26;19992;-81
2024/04/16 04:44:51;;;;;;;4.70;3.63;;;;;;;24.75;38.08;98096.47;5356384;26;19997;-81
2024/04/16 04:47:19;;;;;;;8.45;3.78;;;;;;;25.14;37.43;98085.47;5355764;26;19993;-83
2024/04/16 04:49:44;;;;;;;6.40;3.55;;;;;;;25.24;37.34;98096.44;5356256;26;19992;-81
2024/04/16 04:52:10;;;;;;;6.22;3.80;;;;;;;25.11;37.63;98100.09;5384697;26;19992;-81
2024/04/16 04:54:35;;;;;;;5.85;3.40;;;;;;;25.07;37.37;98093.59;5353444;26;19992;-83
2024/04/16 04:57:01;;;;;;;6.60;3.47;;;;;;;25.06;37.56;98103.47;5355589;26;19996;-83
2024/04/16 04:59:28;;;;;;;6.70;3.58;;;;;;;25.22;37.47;98095.84;5355662;26;19992;-81
2024/04/16 05:01:53;;;;;;;7.07;3.03;;;;;;;25.44;36.70;98091.66;5355228;26;19996;-81
2024/04/16 05:04:19;;;;;;;5.15;3.22;;;;;;;25.46;36.61;98086.09;5355158;26;19996;-82
2024/04/16 05:06:44;;;;;;;8.15;3.40;;;;;;;25.40;36.84;98092.34;5354405;26;19988;-81
2024/04/16 05:09:10;;;;;;;7.90;3.45;;;;;;;25.45;36.59;98103.16;5353692;26;20351;-83
2024/04/16 05:11:35;;;;;;;5.57;3.28;;;;;;;25.67;36.09;98113.31;5325533;26;19996;-81
2024/04/16 05:14:01;;;;;;;8.77;3.28;;;;;;;25.72;36.07;98113.41;5325524;26;19996;-82
2024/04/16 05:16:26;;;;;;;6.88;3.53;;;;;;;26.37;35.12;98101.81;5354509;26;20003;-81
2024/04/16 05:18:52;;;;;;;5.72;3.40;;;;;;;26.77;34.42;98105.59;5354773;26;20000;-81
2024/04/16 05:21:17;;;;;;;3.97;2.97;;;;;;;27.12;34.12;98097.44;5382527;26;19996;-84
2024/04/16 05:23:44;;;;;;;5.90;3.03;;;;;;;27.06;33.93;98101.06;5354999;26;19992;-79
2024/04/16 05:26:10;;;;;;;4.70;3.13;;;;;;;27.05;33.92;98102.13;5352013;26;20007;-81
2024/04/16 05:28:35;;;;;;;8.07;3.42;;;;;;;26.84;34.44;98103.59;5325241;26;20428;-80
2024/04/16 05:31:01;;;;;;;6.25;3.20;;;;;;;26.69;34.54;98096.06;5353867;26;19995;-80
2024/04/16 05:33:26;;;;;;;6.38;3.03;;;;;;;26.63;34.59;98095.13;5354091;26;20000;-80
2024/04/16 05:35:52;;;;;;;10.85;3.50;;;;;;;26.51;35.11;98086.31;5352905;26;20007;-80
2024/04/16 05:38:18;;;;;;;10.48;3.50;;;;;;;26.63;34.82;98079.06;5354012;26;19995;-81
2024/04/16 05:40:43;;;;;;;7.53;3.05;;;;;;;26.55;35.11;98076.75;5352801;26;20007;-80
2024/04/16 05:43:10;;;;;;;4.25;3.05;;;;;;;26.46;35.47;98072.84;5382985;26;20008;-79
2024/04/16 05:45:36;;;;;;;8.50;3.00;;;;;;;26.33;36.24;98077.41;5324961;26;20008;-79
2024/04/16 05:48:02;;;;;;;10.40;3.40;;;;;;;26.24;36.27;98065.44;5354560;26;19992;-81
2024/04/16 05:50:28;;;;;;;9.52;3.28;;;;;;;26.20;36.22;98058.09;5353282;26;19992;-77
2024/04/16 05:52:53;;;;;;;7.63;2.83;;;;;;;26.17;36.54;98062.06;5381973;26;20000;-76
2024/04/16 05:55:19;;;;;;;13.27;2.95;;;;;;;26.05;36.38;98055.94;5353036;26;19988;-77
2024/04/16 05:57:45;;;;;;;6.93;3.20;;;;;;;26.03;36.56;98053.47;5352686;26;20323;-80
2024/04/16 06:00:10;;;;;;;6.40;3.10;;;;;;;26.05;36.21;98054.06;5353308;26;20419;-76
2024/04/16 06:02:36;;;;;;;10.00;3.33;;;;;;;26.12;36.30;98067.28;5354355;26;19992;-76
2024/04/16 06:05:01;;;;;;;11.05;3.60;;;;;;;26.35;36.24;98077.97;5353392;26;19993;-80
2024/04/16 06:07:27;;;;;;;7.30;3.05;;;;;;;26.92;35.61;98062.25;5384717;26;20004;-81
2024/04/16 06:09:53;;;;;;;6.38;3.00;;;;;;;27.20;35.51;98062.22;5388562;26;20450;-81
2024/04/16 06:12:18;;;;;;;9.68;3.13;;;;;;;27.32;35.34;98056.00;5326252;26;20065;-83
2024/04/16 06:14:44;;;;;;;21.58;3.65;;;;;;;27.31;35.55;98054.38;5383448;26;19992;-77
2024/04/16 06:17:10;;;;;;;16.38;3.80;;;;;;;27.24;35.35;98060.66;5381514;26;19996;-78
2024/04/16 06:19:36;;;;;;;18.17;3.60;;;;;;;27.18;35.41;98055.47;5383997;26;20064;-88
2024/04/16 06:22:02;;;;;;;15.52;3.80;;;;;;;27.13;35.82;98066.91;5354484;26;20397;-81
2024/04/16 06:24:27;;;;;;;15.98;3.58;;;;;;;27.00;35.79;98068.03;5385077;26;19993;-81
2024/04/16 06:26:52;;;;;;;11.23;3.35;;;;;;;26.96;35.82;98082.13;5386043;26;20000;-81
2024/04/16 06:29:18;;;;;;;9.80;3.70;;;;;;;26.89;36.10;98090.31;5413631;26;20010;-82
2024/04/16 06:31:43;;;;;;;13.40;4.05;;;;;;;26.82;35.90;98111.88;5385166;26;19996;-85
2024/04/16 06:34:09;;;;;;;16.48;3.65;;;;;;;26.74;35.91;98111.41;5389776;26;20046;-86
2024/04/16 06:36:34;;;;;;;13.85;3.28;;;;;;;26.70;35.92;98106.53;5383873;26;19996;-78
2024/04/16 06:39:00;;;;;;;9.82;3.60;;;;;;;26.74;35.76;98112.25;5382908;26;20007;-78
2024/04/16 06:41:25;;;;;;;12.45;3.78;;;;;;;26.81;35.57;98101.41;5353593;26;20332;-81
2024/04/16 06:43:51;;;;;;;12.75;3.95;;;;;;;26.96;35.37;98117.75;5354286;26;20065;-82
2024/04/16 06:46:16;;;;;;;11.38;4.32;;;;;;;27.16;35.24;98119.19;5382970;26;19992;-80
2024/04/16 06:48:42;;;;;;;23.27;5.15;;;;;;;27.43;34.14;98122.91;5383810;26;19992;-79
2024/04/16 06:51:07;;;;;;;18.05;4.55;;;;;;;27.66;33.97;98115.81;5382481;26;19992;-79
2024/04/16 06:53:33;;;;;;;19.45;5.22;;;;;;;27.95;34.11;98111.19;5382562;26;20358;-80
2024/04/16 06:55:59;;;;;;;14.90;5.70;;;;;;;28.50;32.75;98108.72;5380942;26;19992;-80
2024/04/16 06:58:25;;;;;;;35.85;9.20;;;;;;;28.96;32.25;98113.88;5381729;26;19992;-80
2024/04/16 07:00:50;;;;;;;25.70;7.60;;;;;;;29.76;30.78;98122.16;5379706;26;19996;-79
2024/04/16 07:03:16;;;;;;;26.65;9.73;;;;;;;30.44;29.95;98116.19;5382195;26;20513;-80
2024/04/16 07:05:41;;;;;;;21.75;9.50;;;;;;;31.21;28.21;98108.41;5353295;26;20003;-80
2024/04/16 07:08:07;;;;;;;18.02;8.77;;;;;;;31.80;28.15;98107.13;5382673;26;19992;-79
2024/04/16 07:10:32;;;;;;;21.42;7.93;;;;;;;32.31;27.50;98100.84;5351836;26;20006;-79
2024/04/16 07:12:58;;;;;;;23.45;8.25;;;;;;;32.81;26.76;98096.34;5394161;26;20477;-80
2024/04/16 07:15:23;;;;;;;18.60;7.15;;;;;;;33.25;26.02;98091.22;5387685;26;19991;-80
2024/04/16 07:17:49;;;;;;;19.63;7.97;;;;;;;33.60;25.82;98095.53;5388146;26;19999;-78
2024/04/16 07:20:14;;;;;;;17.05;7.63;;;;;;;34.00;24.81;98095.47;5358234;26;19996;-78
2024/04/16 07:22:40;;;;;;;27.67;7.18;;;;;;;34.09;24.81;98082.94;5415762;26;19992;-82
2024/04/16 07:25:06;;;;;;;14.80;7.10;;;;;;;34.01;25.34;98078.94;5417339;26;20383;-81
2024/04/16 07:27:31;;;;;;;17.40;7.40;;;;;;;34.22;25.59;98073.31;5386989;26;19999;-80
2024/04/16 07:29:57;;;;;;;23.60;6.80;;;;;;;34.17;24.33;98062.53;5417396;26;19991;-82
2024/04/16 07:32:22;;;;;;;20.02;6.45;;;;;;;34.17;24.33;98049.00;5416864;26;20088;-82
2024/04/16 07:34:48;;;;;;;17.38;7.10;;;;;;;34.32;24.39;98054.28;5418499;26;20006;-80
2024/04/16 07:37:13;;;;;;;20.58;6.82;;;;;;;34.06;24.67;98067.25;5417684;26;19999;-81
2024/04/16 07:39:39;;;;;;;11.68;5.97;;;;;;;33.67;25.04;98068.97;5419742;26;20011;-86
2024/04/16 07:42:04;;;;;;;16.08;6.75;;;;;;;33.92;24.63;98060.91;5387751;26;20000;-85
2024/04/16 07:44:30;;;;;;;15.88;6.82;;;;;;;34.05;24.45;98065.66;5359288;26;20155;-82
2024/04/16 07:46:55;;;;;;;19.65;6.47;;;;;;;34.19;25.07;98061.16;5417854;26;20021;-80
2024/04/16 07:49:21;;;;;;;13.52;5.95;;;;;;;34.41;25.14;98063.38;5419943;26;20004;-86
2024/04/16 07:51:48;;;;;;;11.68;5.63;;;;;;;34.37;25.30;98067.75;5360642;26;19991;-82
2024/04/16 07:54:13;;;;;;;12.25;5.10;;;;;;;34.46;24.55;98057.09;5417301;26;20094;-82
2024/04/16 07:56:39;;;;;;;14.70;5.47;;;;;;;34.52;24.66;98055.94;5418963;26;20433;-84
2024/04/16 07:59:04;;;;;;;18.08;5.85;;;;;;;34.60;25.09;98057.16;5388752;26;19996;-78
2024/04/16 08:01:30;;;;;;;11.38;5.68;;;;;;;34.65;24.09;98056.28;5386736;26;20008;-78
2024/04/16 08:03:55;;;;;;;11.77;5.82;;;;;;;34.85;24.70;98063.38;5357642;26;20402;-79
2024/04/16 08:06:21;;;;;;;9.77;5.13;;;;;;;34.61;24.64;98064.22;5386649;26;19999;-82
2024/04/16 08:08:46;;;;;;;11.75;5.53;;;;;;;34.43;24.36;98058.47;5361163;26;20006;-83
2024/04/16 08:11:13;;;;;;;11.68;5.20;;;;;;;34.67;24.22;98063.03;5388734;26;20491;-83
2024/04/16 08:13:39;;;;;;;19.38;5.88;;;;;;;34.48;23.94;98062.22;5359369;26;19991;-82
2024/04/16 08:16:07;;;;;;;17.20;5.50;;;;;;;34.19;24.44;98055.75;5419948;26;20003;-82
2024/04/16 08:18:33;;;;;;;13.73;5.32;;;;;;;34.14;24.89;98055.78;5387157;26;20000;-85
2024/04/16 08:20:58;;;;;;;16.55;5.47;;;;;;;34.14;24.71;98050.38;5387985;26;20068;-85
2024/04/16 08:23:23;;;;;;;8.68;5.00;;;;;;;34.23;25.19;98064.13;5357359;26;19996;-83
2024/04/16 08:26:02;;;;;;;11.93;5.60;;;;;;;34.39;24.24;98068.25;5385062;26;19995;-84
2024/04/16 08:28:27;;;;;;;10.82;4.95;;;;;;;34.28;24.77;98071.41;5418134;26;20007;-81
2024/04/16 08:31:02;;;;;;;10.32;4.63;;;;;;;34.45;23.78;98057.38;5416538;26;20000;-80
2024/04/16 08:33:28;;;;;;;12.40;4.90;;;;;;;34.69;23.86;98058.13;5385611;26;20000;-84
2024/04/16 08:35:53;;;;;;;19.27;4.95;;;;;;;34.87;24.69;98053.03;5415619;26;20476;-79
2024/04/16 08:38:19;;;;;;;17.27;4.75;;;;;;;35.14;24.05;98050.47;5385872;26;20011;-78
2024/04/16 08:40:45;;;;;;;27.02;5.13;;;;;;;35.31;24.88;98049.13;5357536;26;20035;-79
2024/04/16 08:43:10;;;;;;;14.32;4.35;;;;;;;35.51;23.78;98056.13;5360434;26;20000;-80
2024/04/16 08:45:36;;;;;;;11.98;3.90;;;;;;;35.72;22.43;98069.34;5418340;26;20006;-71
2024/04/16 08:48:02;;;;;;;18.20;4.18;;;;;;;35.90;22.55;98063.09;5422509;26;20006;-78
2024/04/16 08:50:28;;;;;;;13.82;3.83;;;;;;;36.03;22.49;98062.28;5365395;26;20007;-86
2024/04/16 08:52:58;;;;;;;9.75;4.00;;;;;;;36.08;21.88;98053.22;5392855;26;20035;-86
2024/04/16 08:55:26;;;;;;;14.65;3.78;;;;;;;36.16;21.41;98055.25;5392347;26;20373;-85
2024/04/16 08:57:52;;;;;;;11.90;3.78;;;;;;;36.21;21.57;98048.91;5390854;26;20010;-86
2024/04/16 09:00:18;;;;;;;15.38;3.75;;;;;;;36.28;21.47;98052.06;5419901;26;20003;-85
2024/04/16 09:02:44;;;;;;;9.07;3.40;;;;;;;36.39;21.62;98048.03;5393056;26;20039;-84
2024/04/16 09:05:10;;;;;;;9.10;3.38;;;;;;;36.39;21.79;98042.59;5363276;26;20327;-86
2024/04/16 09:07:35;;;;;;;7.93;3.25;;;;;;;36.22;21.61;98039.66;5390949;26;19996;-84
2024/04/16 09:10:08;;;;;;;9.63;3.13;;;;;;;36.33;21.29;98037.56;5362106;26;19996;-83
2024/04/16 09:12:33;;;;;;;12.20;3.42;;;;;;;36.45;21.28;98039.75;5363992;26;20434;-85
2024/04/16 09:14:59;;;;;;;8.43;2.97;;;;;;;36.37;21.77;98050.25;5365006;26;20010;-86
2024/04/16 09:17:24;;;;;;;9.23;3.28;;;;;;;36.22;21.63;98034.22;5363282;26;20435;-84
2024/04/16 09:19:50;;;;;;;5.82;3.15;;;;;;;36.15;21.78;98026.50;5392805;26;19996;-83
2024/04/16 09:22:17;;;;;;;8.57;2.75;;;;;;;36.07;22.13;98035.31;5362505;26;20015;-85
2024/04/16 09:24:43;;;;;;;8.07;3.35;;;;;;;36.00;22.29;98032.22;5365430;26;20007;-86
2024/04/16 09:27:10;;;;;;;8.98;3.50;;;;;;;35.85;22.14;98033.28;5392720;26;20427;-85
2024/04/16 09:29:36;;;;;;;12.07;3.50;;;;;;;35.61;22.13;98030.72;5363983;26;20381;-88
2024/04/16 09:32:03;;;;;;;13.02;3.47;;;;;;;35.30;23.16;98015.00;5394419;26;20006;-85
2024/04/16 09:34:29;;;;;;;;;;;;;;;35.25;23.53;98020.47;5395160;26;19996;-84
2024/04/16 09:36:55;;;;;;;5.65;3.47;;;;;;;35.15;23.60;98021.44;5392887;26;19925;-86
2024/04/16 09:39:22;;;;;;;8.90;3.55;;;;;;;34.93;24.35;98022.03;5365313;26;20012;-84
2024/04/16 09:41:48;;;;;;;4.65;2.85;;;;;;;34.89;23.78;98021.81;5420924;26;20430;-85
2024/04/16 09:44:15;;;;;;;8.38;3.38;;;;;;;34.77;23.93;98014.13;5360600;26;19995;-86
2024/04/16 09:46:41;;;;;;;7.10;3.13;;;;;;;34.58;23.93;98011.38;5361524;26;20441;-84
2024/04/16 09:49:07;;;;;;;5.15;2.78;;;;;;;34.41;24.30;98005.66;5364745;26;19992;-84
2024/04/16 09:51:33;;;;;;;10.73;3.20;;;;;;;34.27;24.27;98002.88;5391875;26;20430;-86
2024/04/16 09:53:59;;;;;;;9.48;3.25;;;;;;;34.27;24.36;97991.22;5361016;26;20010;-82
2024/04/16 09:56:24;;;;;;;7.07;3.08;;;;;;;34.02;25.07;97983.09;5360585;26;19991;-84
2024/04/16 09:58:52;;;;;;;7.57;2.95;;;;;;;33.97;25.47;97972.34;5391798;26;19996;-84
2024/04/16 10:01:18;;;;;;;6.68;2.97;;;;;;;33.91;24.78;97978.13;5362742;26;20006;-86
2024/04/16 10:03:44;;;;;;;8.20;3.13;;;;;;;33.86;25.55;97965.44;5421216;26;19992;-85
2024/04/16 10:06:10;;;;;;;8.13;2.83;;;;;;;33.79;25.59;97963.06;5390862;26;19996;-85
2024/04/16 10:08:35;;;;;;;7.88;2.80;;;;;;;33.84;25.35;97956.78;5361723;26;20003;-85
2024/04/16 10:11:01;;;;;;;11.23;3.03;;;;;;;33.77;25.48;97954.44;5390989;26;20002;-85
2024/04/16 10:13:30;;;;;;;7.93;3.17;;;;;;;33.63;25.79;97953.47;5390692;26;20303;-85
2024/04/16 10:15:58;;;;;;;7.32;3.80;;;;;;;33.46;26.38;97943.94;5391996;26;19999;-86
2024/04/16 10:18:24;;;;;;;8.13;3.47;;;;;;;33.54;26.14;97947.88;5390931;26;20320;-84
2024/04/16 10:20:51;;;;;;;6.97;3.10;;;;;;;33.54;26.42;97935.19;5362113;26;20014;-86
2024/04/16 10:23:21;;;;;;;7.78;3.60;;;;;;;33.48;26.88;97928.22;5391630;26;19999;-86
2024/04/16 10:25:53;;;;;;;9.68;3.63;;;;;;;33.39;27.07;97937.25;5392464;26;19995;-90
2024/04/16 10:28:25;;;;;;;9.93;3.28;;;;;;;33.26;27.16;97931.41;5390314;26;19995;-84
2024/04/16 10:31:00;;;;;;;15.48;3.72;;;;;;;33.25;26.91;97918.97;5419553;26;19999;-85
2024/04/16 10:33:27;;;;;;;7.78;3.40;;;;;;;33.34;26.94;97916.47;5388916;26;20331;-85
2024/04/16 10:35:56;;;;;;;5.70;3.30;;;;;;;33.29;26.76;97911.91;5361770;26;20010;-87
2024/04/16 10:38:23;;;;;;;7.07;3.20;;;;;;;33.21;26.88;97900.88;5419303;26;19998;-87
2024/04/16 10:40:56;;;;;;;9.82;3.88;;;;;;;33.12;27.34;97893.38;5359042;26;20068;-85
2024/04/16 10:43:24;;;;;;;6.05;3.10;;;;;;;33.07;27.32;97893.44;5388273;26;20006;-85
2024/04/16 10:45:50;;;;;;;8.57;3.78;;;;;;;32.97;27.69;97896.22;5361563;26;20028;-84
2024/04/16 10:48:22;;;;;;;6.22;3.55;;;;;;;32.90;28.23;97890.34;5418191;26;20045;-85
2024/04/16 10:50:50;;;;;;;9.13;3.10;;;;;;;32.92;28.11;97894.34;5419963;26;20011;-86
2024/04/16 10:53:19;;;;;;;6.97;3.17;;;;;;;33.13;27.81;97902.28;5418845;26;19995;-86
2024/04/16 10:55:45;;;;;;;6.68;3.20;;;;;;;33.21;27.46;97893.59;5389909;26;20007;-86
2024/04/16 10:58:12;;;;;;;9.15;3.60;;;;;;;33.25;27.35;97893.81;5388938;26;20060;-83
2024/04/16 11:00:38;;;;;;;6.33;3.50;;;;;;;33.15;27.49;97890.09;5417662;26;20028;-84
2024/04/16 11:03:04;;;;;;;9.68;3.33;;;;;;;33.04;27.34;97901.31;5387751;26;19992;-86
2024/04/16 11:05:29;;;;;;;6.38;3.30;;;;;;;32.98;27.59;97884.31;5361004;26;20007;-83
2024/04/16 11:07:55;;;;;;;8.75;3.17;;;;;;;32.95;27.60;97877.56;5359441;26;20007;-86
2024/04/16 11:10:20;;;;;;;10.50;3.45;;;;;;;32.98;27.66;97878.91;5389462;26;20007;-87
2024/04/16 11:12:46;;;;;;;6.90;3.33;;;;;;;32.95;27.47;97877.56;5392294;26;20062;-84
2024/04/16 11:15:11;;;;;;;6.93;3.40;;;;;;;32.91;27.51;97867.63;5361633;26;19991;-85
2024/04/16 11:17:38;;;;;;;10.23;3.55;;;;;;;32.88;27.47;97871.72;5390618;26;20090;-89
2024/04/16 11:20:04;;;;;;;10.93;3.30;;;;;;;32.85;27.09;97858.75;5391508;26;20431;-85
2024/04/16 11:22:31;;;;;;;6.55;3.55;;;;;;;32.87;26.67;97859.28;5361533;26;19992;-83
2024/04/16 11:24:56;;;;;;;6.68;3.30;;;;;;;32.90;25.89;97857.91;5362788;26;20015;-84
2024/04/16 11:27:22;;;;;;;11.82;3.50;;;;;;;32.91;26.50;97846.81;5388941;26;19991;-83